Dobrodošli na spletni strani vremenske postaje Senovo. Vse informacije so informativnega značaja, saj vremenska postaja ni del državne mreže meteoroloških postaj. AKTUALNIH OBVESTIL NI.


Sneg/Led Od: 21-02-2018 00:00 Do: 23-02-2018 23:59 Opozorilo za: Sneg/Led Stopnja: Rumena info button
Veter Od: 21-02-2018 00:00 Do: 22-02-2018 23:59 Opozorilo za: Veter Stopnja: Rumena info button

Pogled proti Armezu več informacij Pogled proti Armezu


Lisca več informacij Lisca


Radar strel več informacij blitzortung!


opozorilo za sneg/led več informacij rain snow radar


Obiščite še:

Template documentation
and downloads

And another site



Weather Underground, zgodovina - Tekstovno

Dnevni povzetek za Januar 5, 2018 Enote:  Angleško    Metrično   Obe
« Predhodni Dan
Naslednji Dan »
Dnevni Tedenski Mesečni Letni Po meri
  Višja: Nižja: Povprečje:
Temperatura: TemperatureC °F 1.6 °F 7 °F
Točka rosišča: DewpointC °F 1.2 °F 5.9 °F
Vlažnost: Humidity % 80 % 93 %
Hitrost vetra: WindSpeedKMH mph 0.0 mph 1.3 mph
Sunki vetra: WindSpeedGustKMH mph - -
Veter:- - WSW
Zračni tlak: PressurehPa in 1001.9 in -
Padavine: 0.0 in    
Historical Graphs
 
 
Tabelarni podarki za Januar 5, 2018
Čas Temperatura Točka rosišča Zračni tlak Veter Hitrost vetra Sunki vetra Vlažnost Intenziteta padavin (urna)
TemperatureC °F DewpointC °F PressurehPa in Calm     Humidity % HourlyPrecipMM in
00:02 1.6 °F 1.2 °F 1002.9 in Calm     97 % 0.0 in
00:04 1.7 °F 1.3 °F 1002.9 in Calm     97 % 0.0 in
00:07 1.7 °F 1.3 °F 1002.9 in Calm     97 % 0.0 in
00:10 1.7 °F 1.3 °F 1002.9 in NNW 0.2 mph 3.5 mph 97 % 0.0 in
00:15 1.7 °F 1.3 °F 1002.9 in ENE 1.0 mph 4.0 mph 97 % 0.0 in
00:20 1.8 °F 1.4 °F 1002.9 in SE 0.6 mph 4.0 mph 97 % 0.0 in
00:22 1.8 °F 1.4 °F 1002.9 in SE 0.5 mph 4.0 mph 97 % 0.0 in
00:27 1.9 °F 1.5 °F 1002.9 in Calm     97 % 0.0 in
00:28 1.9 °F 1.5 °F 1002.9 in Calm     97 % 0.0 in
00:33 1.9 °F 1.5 °F 1002.9 in Calm     97 % 0.0 in
00:37 2.0 °F 1.6 °F 1002.9 in Calm     97 % 0.0 in
00:42 2.0 °F 1.6 °F 1002.9 in Calm     97 % 0.0 in
00:47 2.1 °F 1.7 °F 1002.9 in Calm     97 % 0.0 in
00:52 2.1 °F 1.7 °F 1002.9 in Calm     97 % 0.0 in
00:57 2.1 °F 1.7 °F 1002.9 in Calm     97 % 0.0 in
01:01 2.2 °F 1.8 °F 1002.9 in Calm     97 % 0.0 in
01:06 2.2 °F 1.8 °F 1002.9 in Calm     97 % 0.0 in
01:11 2.3 °F 1.9 °F 1002.9 in Calm   1.4 mph 97 % 0.0 in
01:16 2.4 °F 2.0 °F 1001.9 in Calm   1.4 mph 97 % 0.0 in
01:18 2.4 °F 2.0 °F 1001.9 in Calm     97 % 0.0 in
01:23 2.4 °F 2.0 °F 1001.9 in Calm     97 % 0.0 in
01:28 2.4 °F 2.1 °F 1001.9 in Calm     98 % 0.0 in
01:30 2.5 °F 2.2 °F 1001.9 in Calm     98 % 0.0 in
01:35 2.6 °F 2.3 °F 1001.9 in Calm     98 % 0.0 in
01:40 2.6 °F 2.3 °F 1001.9 in Calm     98 % 0.0 in
01:41 2.6 °F 2.3 °F 1001.9 in Calm     98 % 0.0 in
01:45 2.7 °F 2.4 °F 1002.9 in Calm     98 % 0.0 in
01:50 2.7 °F 2.4 °F 1002.9 in Calm     98 % 0.0 in
01:55 2.8 °F 2.5 °F 1002.9 in Calm     98 % 0.0 in
02:00 2.8 °F 2.5 °F 1001.9 in Calm     98 % 0.0 in
02:02 2.9 °F 2.6 °F 1001.9 in Calm     98 % 0.0 in
02:07 2.9 °F 2.6 °F 1001.9 in Calm     98 % 0.0 in
02:12 3.0 °F 2.6 °F 1002.9 in Calm     97 % 0.0 in
02:14 3.0 °F 2.6 °F 1002.9 in Calm     97 % 0.0 in
02:19 3.0 °F 2.6 °F 1002.9 in Calm     97 % 0.0 in
02:24 3.0 °F 2.6 °F 1002.9 in Calm     97 % 0.0 in
02:29 3.1 °F 2.7 °F 1002.9 in Calm     97 % 0.0 in
02:31 3.1 °F 2.7 °F 1002.9 in Calm     97 % 0.0 in
02:36 3.1 °F 2.8 °F 1002.9 in Calm     98 % 0.0 in
02:37 3.1 °F 2.8 °F 1002.9 in Calm     98 % 0.0 in
02:42 3.1 °F 2.8 °F 1002.9 in Calm     98 % 0.0 in
02:43 3.1 °F 2.8 °F 1002.9 in Calm     98 % 0.0 in
02:48 3.2 °F 2.9 °F 1002.9 in Calm     98 % 0.0 in
02:49 3.2 °F 2.9 °F 1002.9 in Calm     98 % 0.0 in
02:54 3.2 °F 2.9 °F 1002.9 in SSE 0.8 mph 7.9 mph 98 % 0.0 in
02:59 3.3 °F 3.0 °F 1002.9 in South 1.3 mph 7.9 mph 98 % 0.0 in
03:04 3.4 °F 3.1 °F 1002.9 in WNW 0.6 mph 3.5 mph 98 % 0.0 in
03:07 3.4 °F 3.1 °F 1002.9 in West 0.5 mph 3.5 mph 98 % 0.0 in
03:12 3.6 °F 3.3 °F 1002.9 in SSE 1.8 mph 6.4 mph 98 % 0.0 in
03:17 3.7 °F 3.4 °F 1001.9 in SSE 4.3 mph 9.3 mph 98 % 0.0 in
03:22 4.1 °F 3.8 °F 1001.9 in SSE 5.6 mph 9.3 mph 98 % 0.0 in
03:28 4.4 °F 4.1 °F 1002.9 in South 5.3 mph 9.3 mph 98 % 0.0 in
03:30 4.4 °F 4.1 °F 1002.9 in South 4.0 mph 9.3 mph 98 % 0.0 in
03:35 4.4 °F 4.1 °F 1002.9 in SSW 2.4 mph 6.1 mph 98 % 0.0 in
03:36 4.4 °F 4.1 °F 1002.9 in SSW 2.1 mph 6.1 mph 98 % 0.0 in
03:37 4.4 °F 4.1 °F 1002.9 in SSW 2.1 mph 6.1 mph 98 % 0.0 in
03:42 4.4 °F 4.1 °F 1003.9 in SW 2.3 mph 5.0 mph 98 % 0.0 in
03:47 4.4 °F 4.1 °F 1003.9 in WSW 1.0 mph 5.0 mph 98 % 0.0 in
03:52 4.5 °F 4.2 °F 1003.9 in Calm     98 % 0.0 in
03:57 4.6 °F 4.3 °F 1003.9 in Calm     98 % 0.0 in
03:59 4.6 °F 4.3 °F 1002.9 in Calm   4.0 mph 98 % 0.0 in
04:04 4.5 °F 4.2 °F 1002.9 in SW 0.6 mph 4.0 mph 98 % 0.0 in
04:07 4.5 °F 4.2 °F 1002.9 in SW 0.6 mph 4.0 mph 98 % 0.0 in
04:12 4.6 °F 4.3 °F 1002.9 in WSW 0.5 mph 5.5 mph 98 % 0.0 in
04:16 4.6 °F 4.3 °F 1002.9 in WSW 0.5 mph 5.5 mph 98 % 0.0 in
04:21 4.6 °F 4.3 °F 1002.9 in SW 0.3 mph 1.8 mph 98 % 0.0 in
04:27 4.7 °F 4.4 °F 1002.9 in NW 0.8 mph 5.5 mph 98 % 0.0 in
04:29 4.7 °F 4.4 °F 1002.9 in NW 1.1 mph 5.5 mph 98 % 0.0 in
04:34 4.9 °F 4.6 °F 1002.9 in NW 1.0 mph 4.0 mph 98 % 0.0 in
04:36 4.9 °F 4.6 °F 1002.9 in NW 0.3 mph 2.1 mph 98 % 0.0 in
04:41 5.0 °F 4.7 °F 1002.9 in Calm   2.6 mph 98 % 0.0 in
04:46 5.1 °F 4.8 °F 1002.9 in NW 1.3 mph 5.5 mph 98 % 0.0 in
04:50 5.1 °F 4.8 °F 1002.9 in NW 1.4 mph 5.5 mph 98 % 0.0 in
04:55 5.1 °F 4.8 °F 1002.9 in WNW 0.6 mph 3.2 mph 98 % 0.0 in
05:00 5.1 °F 4.8 °F 1003.9 in NW 0.6 mph 4.7 mph 98 % 0.0 in
05:05 5.1 °F 4.8 °F 1003.9 in NW 1.6 mph 4.7 mph 98 % 0.0 in
05:08 5.1 °F 4.8 °F 1003.9 in NW 1.4 mph 4.7 mph 98 % 0.0 in
05:13 5.1 °F 4.8 °F 1003.9 in Calm     98 % 0.0 in
05:14 5.1 °F 4.8 °F 1003.9 in Calm     98 % 0.0 in
05:19 5.1 °F 4.8 °F 1003.9 in Calm   2.6 mph 98 % 0.0 in
05:23 5.1 °F 4.8 °F 1003.9 in WNW 1.4 mph 5.0 mph 98 % 0.0 in
05:28 5.1 °F 4.8 °F 1003.9 in WNW 1.9 mph 5.0 mph 98 % 0.0 in
05:34 5.0 °F 4.7 °F 1003.9 in SW 1.6 mph 4.7 mph 98 % 0.0 in
05:37 5.0 °F 4.7 °F 1003.9 in SW 1.4 mph 5.5 mph 98 % 0.0 in
05:42 5.0 °F 4.7 °F 1003.9 in SW 2.9 mph 5.8 mph 98 % 0.0 in
05:43 5.0 °F 4.7 °F 1003.9 in SW 3.1 mph 5.8 mph 98 % 0.0 in
05:47 4.9 °F 4.6 °F 1003.9 in SSW 4.3 mph 5.8 mph 98 % 0.0 in
05:50 4.9 °F 4.6 °F 1003.9 in SSW 3.9 mph 5.8 mph 98 % 0.0 in
05:55 4.9 °F 4.6 °F 1003.9 in SW 2.3 mph 5.8 mph 98 % 0.0 in
05:59 4.8 °F 4.5 °F 1003.9 in SW 1.0 mph 4.3 mph 98 % 0.0 in
06:02 4.8 °F 4.5 °F 1003.9 in Calm     98 % 0.0 in
06:07 4.8 °F 4.5 °F 1003.9 in Calm     98 % 0.0 in
06:08 4.8 °F 4.5 °F 1003.9 in Calm     98 % 0.0 in
06:13 4.7 °F 4.4 °F 1003.9 in Calm     98 % 0.0 in
06:14 4.7 °F 4.4 °F 1003.9 in Calm     98 % 0.0 in
06:18 4.6 °F 4.3 °F 1003.9 in Calm     98 % 0.0 in
06:23 4.4 °F 4.1 °F 1003.9 in Calm     98 % 0.0 in
06:28 4.3 °F 4.0 °F 1003.9 in Calm     98 % 0.0 in
06:33 4.2 °F 3.9 °F 1003.9 in Calm     98 % 0.0 in
06:38 4.1 °F 3.8 °F 1003.9 in Calm     98 % 0.0 in
06:40 4.1 °F 3.8 °F 1003.9 in Calm     98 % 0.0 in
06:42 3.9 °F 3.6 °F 1003.9 in Calm     98 % 0.0 in
06:47 3.8 °F 3.5 °F 1005.0 in Calm     98 % 0.0 in
06:51 3.6 °F 3.3 °F 1005.0 in WNW 0.2 mph 2.6 mph 98 % 0.0 in
06:56 3.6 °F 3.3 °F 1005.0 in WNW 0.2 mph 2.6 mph 98 % 0.0 in
06:57 3.5 °F 3.2 °F 1005.0 in WNW 0.2 mph 2.6 mph 98 % 0.0 in
07:03 3.4 °F 3.1 °F 1005.0 in NW 0.3 mph 3.5 mph 98 % 0.0 in
07:04 3.4 °F 3.1 °F 1005.0 in NW 0.3 mph 3.5 mph 98 % 0.0 in
07:09 3.3 °F 3.0 °F 1005.0 in NW 0.3 mph 3.5 mph 98 % 0.0 in
07:14 3.2 °F 2.9 °F 1005.0 in Calm     98 % 0.0 in
07:19 3.1 °F 2.8 °F 1005.0 in Calm     98 % 0.0 in
07:24 3.0 °F 2.7 °F 1005.0 in Calm     98 % 0.0 in
07:25 3.0 °F 2.7 °F 1005.0 in Calm     98 % 0.0 in
07:30 2.9 °F 2.6 °F 1003.9 in Calm     98 % 0.0 in
07:31 2.9 °F 2.6 °F 1003.9 in Calm   2.6 mph 98 % 0.0 in
07:35 2.8 °F 2.5 °F 1003.9 in NW 0.2 mph 2.6 mph 98 % 0.0 in
07:36 2.8 °F 2.5 °F 1003.9 in NW 0.2 mph 2.6 mph 98 % 0.0 in
07:41 2.8 °F 2.5 °F 1003.9 in North 0.2 mph   98 % 0.0 in
07:42 2.8 °F 2.5 °F 1003.9 in Calm     98 % 0.0 in
07:44 2.7 °F 2.4 °F 1003.9 in Calm     98 % 0.0 in
07:47 2.7 °F 2.4 °F 1003.9 in Calm   1.8 mph 98 % 0.0 in
07:51 2.8 °F 2.5 °F 1003.9 in Calm   1.8 mph 98 % 0.0 in
07:56 2.7 °F 2.4 °F 1003.9 in Calm   1.8 mph 98 % 0.0 in
07:59 2.7 °F 2.4 °F 1005.0 in WSW 0.3 mph 4.0 mph 98 % 0.0 in
08:04 2.6 °F 2.3 °F 1005.0 in West 0.8 mph 4.0 mph 98 % 0.0 in
08:09 2.6 °F 2.3 °F 1005.0 in NNW 0.5 mph 3.5 mph 98 % 0.0 in
08:11 2.6 °F 2.3 °F 1005.0 in NNW 0.5 mph 3.5 mph 98 % 0.0 in
08:16 2.6 °F 2.3 °F 1005.0 in Calm     98 % 0.0 in
08:18 2.6 °F 2.3 °F 1005.0 in Calm     98 % 0.0 in
08:23 2.5 °F 2.2 °F 1005.0 in Calm     98 % 0.0 in
08:27 2.5 °F 2.2 °F 1005.0 in Calm     98 % 0.0 in
08:32 2.6 °F 2.3 °F 1006.0 in NW 0.6 mph 4.0 mph 98 % 0.0 in
08:35 2.7 °F 2.4 °F 1006.0 in NW 0.8 mph 4.0 mph 98 % 0.0 in
08:45 2.8 °F 2.5 °F 1006.0 in NNW 0.2 mph 1.8 mph 98 % 0.0 in
08:49 2.9 °F 2.6 °F 1006.0 in Calm   1.8 mph 98 % 0.0 in
08:50 2.9 °F 2.6 °F 1006.0 in Calm     98 % 0.0 in
08:55 3.0 °F 2.7 °F 1006.0 in Calm     98 % 0.0 in
09:00 3.1 °F 2.8 °F 1007.0 in Calm     98 % 0.0 in
09:01 3.1 °F 2.8 °F 1007.0 in Calm     98 % 0.0 in
09:06 3.3 °F 3.0 °F 1007.0 in Calm     98 % 0.0 in
09:10 3.4 °F 3.1 °F 1007.0 in Calm     98 % 0.0 in
09:15 3.7 °F 3.4 °F 1007.0 in SE 0.2 mph 2.1 mph 98 % 0.0 in
09:21 3.8 °F 3.5 °F 1007.0 in SE 0.2 mph 2.1 mph 98 % 0.0 in
09:26 4.0 °F 3.7 °F 1007.0 in SSW 1.3 mph 6.1 mph 98 % 0.0 in
09:31 4.2 °F 3.9 °F 1008.0 in South 1.8 mph 6.1 mph 98 % 0.0 in
09:32 4.3 °F 4.0 °F 1008.0 in SE 1.4 mph 5.5 mph 98 % 0.0 in
09:38 4.5 °F 4.2 °F 1008.0 in SE 0.6 mph 2.6 mph 98 % 0.0 in
09:39 4.6 °F 4.3 °F 1008.0 in SE 0.5 mph 2.6 mph 98 % 0.0 in
09:44 4.7 °F 4.4 °F 1008.0 in Calm   1.4 mph 98 % 0.0 in
09:47 5.1 °F 4.8 °F 1008.0 in Calm     98 % 0.0 in
09:52 5.5 °F 5.2 °F 1008.0 in Calm   3.5 mph 98 % 0.0 in
09:54 5.7 °F 5.4 °F 1008.0 in NNW 0.3 mph 3.5 mph 98 % 0.0 in
09:59 6.1 °F 5.8 °F 1007.0 in NNW 0.2 mph 3.5 mph 98 % 0.0 in
10:02 6.3 °F 6.0 °F 1007.0 in North 0.3 mph 2.6 mph 98 % 0.0 in
10:05 6.6 °F 6.3 °F 1007.0 in Calm     98 % 0.0 in
10:11 7.0 °F 6.7 °F 1007.0 in SE 0.2 mph 4.3 mph 98 % 0.0 in
10:13 7.7 °F 7.4 °F 1007.0 in WSW 1.0 mph 8.7 mph 98 % 0.0 in
10:20 8.4 °F 8.1 °F 1007.0 in SW 2.7 mph 8.7 mph 98 % 0.0 in
10:25 8.6 °F 8.3 °F 1007.0 in South 3.5 mph 9.0 mph 98 % 0.0 in
10:27 8.7 °F 8.4 °F 1007.0 in South 4.2 mph 9.0 mph 98 % 0.0 in
10:32 8.9 °F 8.6 °F 1007.0 in South 5.0 mph 7.9 mph 98 % 0.0 in
10:37 9.1 °F 8.8 °F 1007.0 in SSW 4.7 mph 7.9 mph 98 % 0.0 in
10:42 9.5 °F 9.2 °F 1007.0 in SSW 2.3 mph 6.1 mph 98 % 0.0 in
10:45 9.7 °F 9.4 °F 1007.0 in South 1.1 mph 4.7 mph 98 % 0.0 in
10:48 10.0 °F 9.7 °F 1007.0 in ESE 1.0 mph 4.7 mph 98 % 0.0 in
10:54 10.3 °F 10.0 °F 1007.0 in ENE 1.4 mph 4.7 mph 98 % 0.0 in
10:59 10.7 °F 10.4 °F 1006.0 in West 2.4 mph 9.7 mph 98 % 0.0 in
11:01 10.8 °F 10.5 °F 1006.0 in SW 3.4 mph 9.7 mph 98 % 0.0 in
11:06 11.2 °F 10.9 °F 1006.0 in SW 5.8 mph 11.9 mph 98 % 0.0 in
11:11 11.5 °F 11.2 °F 1006.0 in SW 6.4 mph 11.9 mph 98 % 0.0 in
11:13 11.5 °F 11.2 °F 1006.0 in WSW 6.4 mph 11.9 mph 98 % 0.0 in
11:18 11.7 °F 11.4 °F 1006.0 in WSW 4.8 mph 9.7 mph 98 % 0.0 in
11:19 11.8 °F 11.5 °F 1006.0 in WSW 4.3 mph 9.0 mph 98 % 0.0 in
11:25 12.0 °F 11.7 °F 1006.0 in SW 4.5 mph 11.6 mph 98 % 0.0 in
11:27 12.0 °F 11.7 °F 1007.0 in WSW 4.7 mph 11.6 mph 98 % 0.0 in
11:32 12.2 °F 11.9 °F 1007.0 in West 6.0 mph 12.2 mph 98 % 0.0 in
11:33 12.3 °F 12.0 °F 1007.0 in West 6.3 mph 12.2 mph 98 % 0.0 in
11:36 12.4 °F 12.1 °F 1007.0 in West 6.6 mph 12.2 mph 98 % 0.0 in
11:41 12.5 °F 12.2 °F 1007.0 in WSW 6.0 mph 10.5 mph 98 % 0.0 in
11:43 12.6 °F 12.3 °F 1007.0 in WSW 5.6 mph 14.0 mph 98 % 0.0 in
11:48 12.6 °F 12.1 °F 1007.0 in WSW 6.0 mph 14.0 mph 97 % 0.0 in
11:49 12.6 °F 12.1 °F 1007.0 in WSW 6.0 mph 14.0 mph 97 % 0.0 in
11:50 12.7 °F 12.2 °F 1007.0 in West 6.1 mph 14.0 mph 97 % 0.0 in
11:56 13.0 °F 12.6 °F 1007.0 in WSW 5.6 mph 12.6 mph 97 % 0.0 in
12:00 13.0 °F 12.6 °F 1006.0 in SW 7.1 mph 14.0 mph 97 % 0.0 in
12:01 13.0 °F 12.4 °F 1006.0 in SW 7.6 mph 16.6 mph 96 % 0.0 in
12:06 12.9 °F 12.3 °F 1006.0 in SW 9.5 mph 16.6 mph 96 % 0.0 in
12:11 12.7 °F 11.9 °F 1006.0 in SW 8.4 mph 16.6 mph 95 % 0.0 in
12:15 12.7 °F 11.9 °F 1007.0 in SW 7.1 mph 15.8 mph 95 % 0.0 in
12:19 12.7 °F 11.8 °F 1007.0 in WSW 6.1 mph 13.7 mph 94 % 0.0 in
12:24 12.7 °F 11.8 °F 1007.0 in WSW 5.8 mph 13.7 mph 94 % 0.0 in
12:27 12.7 °F 11.6 °F 1007.0 in WSW 5.6 mph 13.7 mph 93 % 0.0 in
12:32 12.7 °F 11.4 °F 1007.0 in WSW 6.6 mph 20.1 mph 92 % 0.0 in
12:37 12.7 °F 11.3 °F 1007.0 in West 8.2 mph 20.1 mph 91 % 0.0 in
12:39 12.7 °F 11.3 °F 1007.0 in WSW 8.5 mph 15.4 mph 91 % 0.0 in
12:44 12.7 °F 11.1 °F 1008.0 in WSW 6.3 mph 12.6 mph 90 % 0.0 in
12:48 12.7 °F 10.9 °F 1008.0 in WSW 5.0 mph 10.5 mph 89 % 0.0 in
12:49 12.7 °F 10.9 °F 1008.0 in WSW 5.3 mph 11.9 mph 89 % 0.0 in
12:54 12.7 °F 10.8 °F 1008.0 in WSW 5.6 mph 11.9 mph 88 % 0.0 in
12:59 12.6 °F 10.5 °F 1007.0 in WSW 7.1 mph 13.7 mph 87 % 0.0 in
13:01 12.6 °F 10.5 °F 1007.0 in WSW 6.8 mph 13.7 mph 87 % 0.0 in
13:06 12.6 °F 10.2 °F 1007.0 in WSW 6.6 mph 13.7 mph 85 % 0.0 in
13:07 12.6 °F 10.2 °F 1007.0 in WSW 5.8 mph 11.9 mph 85 % 0.0 in
13:12 12.5 °F 10.1 °F 1007.0 in SW 4.2 mph 9.7 mph 85 % 0.0 in
13:17 12.4 °F 9.8 °F 1007.0 in West 4.7 mph 9.7 mph 84 % 0.0 in
13:20 12.4 °F 9.8 °F 1007.0 in West 5.1 mph 9.7 mph 84 % 0.0 in
13:25 12.3 °F 9.5 °F 1007.0 in West 5.0 mph 10.5 mph 83 % 0.0 in
13:28 12.3 °F 9.5 °F 1008.0 in West 6.0 mph 13.0 mph 83 % 0.0 in
13:33 12.3 °F 9.5 °F 1008.0 in West 6.3 mph 13.0 mph 83 % 0.0 in
13:35 12.2 °F 9.2 °F 1008.0 in WSW 6.1 mph 13.0 mph 82 % 0.0 in
13:40 12.2 °F 9.2 °F 1008.0 in WSW 4.3 mph 10.1 mph 82 % 0.0 in
13:45 12.2 °F 9.2 °F 1007.0 in West 3.5 mph 7.2 mph 82 % 0.0 in
13:46 12.2 °F 9.2 °F 1007.0 in West 3.5 mph 7.2 mph 82 % 0.0 in
13:51 12.1 °F 9.1 °F 1007.0 in WNW 4.0 mph 10.1 mph 82 % 0.0 in
13:56 12.1 °F 8.9 °F 1007.0 in WNW 3.5 mph 10.1 mph 81 % 0.0 in
14:00 12.1 °F 8.9 °F 1007.0 in NW 2.9 mph 10.1 mph 81 % 0.0 in
14:05 12.1 °F 8.9 °F 1007.0 in West 1.3 mph 9.3 mph 81 % 0.0 in
14:10 12.0 °F 8.8 °F 1007.0 in SW 3.1 mph 9.3 mph 81 % 0.0 in
14:13 12.0 °F 8.8 °F 1007.0 in SW 4.2 mph 9.3 mph 81 % 0.0 in
14:19 11.9 °F 8.7 °F 1007.0 in WSW 4.2 mph 7.9 mph 81 % 0.0 in
14:24 11.9 °F 8.7 °F 1007.0 in West 3.2 mph 7.9 mph 81 % 0.0 in
14:29 11.8 °F 8.7 °F 1007.0 in West 3.9 mph 9.0 mph 81 % 0.0 in
14:32 11.8 °F 8.4 °F 1007.0 in WNW 4.0 mph 9.0 mph 80 % 0.0 in
14:34 11.8 °F 8.4 °F 1007.0 in West 4.2 mph 9.0 mph 80 % 0.0 in
14:39 11.7 °F 8.4 °F 1007.0 in WNW 3.9 mph 8.7 mph 80 % 0.0 in
14:41 11.7 °F 8.4 °F 1007.0 in WNW 4.0 mph 8.7 mph 80 % 0.0 in
14:47 11.7 °F 8.4 °F 1007.0 in WNW 3.1 mph 6.4 mph 80 % 0.0 in
14:52 11.6 °F 8.3 °F 1007.0 in West 3.4 mph 7.9 mph 80 % 0.0 in
14:57 11.5 °F 8.2 °F 1007.0 in West 4.0 mph 7.9 mph 80 % 0.0 in
15:02 11.4 °F 8.1 °F 1007.0 in West 3.1 mph 6.9 mph 80 % 0.0 in
15:07 11.4 °F 8.1 °F 1007.0 in WSW 4.3 mph 8.7 mph 80 % 0.0 in
15:12 11.3 °F 8.0 °F 1008.0 in WSW 5.5 mph 10.1 mph 80 % 0.0 in
15:16 11.3 °F 8.0 °F 1008.0 in SW 4.3 mph 10.1 mph 80 % 0.0 in
15:21 11.2 °F 7.9 °F 1008.0 in WSW 2.7 mph 7.6 mph 80 % 0.0 in
15:26 11.1 °F 7.8 °F 1008.0 in WSW 2.3 mph 7.6 mph 80 % 0.0 in
15:31 11.0 °F 7.9 °F 1006.0 in SW 2.9 mph 6.4 mph 81 % 0.0 in
15:33 11.0 °F 7.9 °F 1006.0 in SW 2.7 mph 6.4 mph 81 % 0.0 in
15:38 10.9 °F 7.8 °F 1006.0 in WSW 1.6 mph 6.4 mph 81 % 0.0 in
15:42 10.9 °F 7.8 °F 1006.0 in East 0.2 mph 1.4 mph 81 % 0.0 in
15:43 10.9 °F 7.8 °F 1006.0 in Calm   3.5 mph 81 % 0.0 in
15:48 10.8 °F 7.7 °F 1006.0 in SSW 0.8 mph 4.3 mph 81 % 0.0 in
15:54 10.7 °F 7.6 °F 1006.0 in SW 1.3 mph 4.3 mph 81 % 0.0 in
15:56 10.7 °F 7.6 °F 1006.0 in SW 1.1 mph 4.3 mph 81 % 0.0 in
16:01 10.6 °F 7.7 °F 1007.0 in WSW 0.3 mph 3.2 mph 82 % 0.0 in
16:02 10.6 °F 7.7 °F 1007.0 in WSW 0.3 mph 3.2 mph 82 % 0.0 in
16:08 10.5 °F 7.6 °F 1007.0 in Calm   2.1 mph 82 % 0.0 in
16:10 10.5 °F 7.6 °F 1007.0 in Calm     82 % 0.0 in
16:15 10.4 °F 7.4 °F 1007.0 in Calm     82 % 0.0 in
16:20 10.2 °F 7.3 °F 1007.0 in Calm     82 % 0.0 in
16:26 10.1 °F 7.3 °F 1007.0 in Calm   2.6 mph 83 % 0.0 in
16:31 10.0 °F 7.2 °F 1007.0 in SW 0.3 mph 3.2 mph 83 % 0.0 in
16:36 9.8 °F 7.1 °F 1007.0 in WSW 0.5 mph 3.2 mph 83 % 0.0 in
16:39 9.7 °F 6.9 °F 1007.0 in West 0.5 mph 2.6 mph 83 % 0.0 in
16:40 9.7 °F 6.9 °F 1007.0 in WNW 0.2 mph 2.6 mph 83 % 0.0 in
16:46 9.6 °F 7.0 °F 1007.0 in Calm     84 % 0.0 in
16:48 9.5 °F 6.9 °F 1007.0 in Calm     84 % 0.0 in
16:53 9.4 °F 6.8 °F 1007.0 in Calm     84 % 0.0 in
16:54 9.4 °F 6.8 °F 1007.0 in Calm     84 % 0.0 in
16:59 9.2 °F 6.6 °F 1007.0 in Calm     84 % 0.0 in
17:00 9.2 °F 6.6 °F 1007.0 in Calm     84 % 0.0 in
17:06 9.0 °F 6.4 °F 1007.0 in Calm     84 % 0.0 in
17:11 9.0 °F 6.6 °F 1007.0 in Calm     85 % 0.0 in
17:14 8.9 °F 6.5 °F 1007.0 in Calm     85 % 0.0 in
17:18 8.8 °F 6.4 °F 1007.0 in Calm     85 % 0.0 in
17:24 8.7 °F 6.5 °F 1007.0 in Calm     86 % 0.0 in
17:29 8.6 °F 6.4 °F 1007.0 in Calm     86 % 0.0 in
17:30 8.6 °F 6.4 °F 1007.0 in Calm     86 % 0.0 in
17:35 8.5 °F 6.3 °F 1007.0 in Calm     86 % 0.0 in
17:36 8.5 °F 6.3 °F 1007.0 in Calm     86 % 0.0 in
17:41 8.5 °F 6.3 °F 1007.0 in Calm     86 % 0.0 in
17:44 8.4 °F 6.2 °F 1007.0 in Calm     86 % 0.0 in
17:49 8.4 °F 6.2 °F 1007.0 in Calm     86 % 0.0 in
17:52 8.4 °F 6.3 °F 1007.0 in Calm     87 % 0.0 in
18:00 8.3 °F 6.3 °F 1007.0 in Calm     87 % 0.0 in
18:05 8.3 °F 6.3 °F 1007.0 in Calm     87 % 0.0 in
18:07 8.3 °F 6.3 °F 1007.0 in Calm     87 % 0.0 in
18:12 8.3 °F 6.4 °F 1007.0 in Calm     88 % 0.0 in
18:14 8.3 °F 6.4 °F 1007.0 in Calm     88 % 0.0 in
18:19 8.3 °F 6.4 °F 1007.0 in Calm     88 % 0.0 in
18:24 8.3 °F 6.4 °F 1007.0 in Calm     88 % 0.0 in
18:29 8.3 °F 6.6 °F 1007.0 in WSW 0.5 mph 5.5 mph 89 % 0.0 in
18:35 8.3 °F 6.6 °F 1007.0 in WSW 1.3 mph 5.5 mph 89 % 0.0 in
18:40 8.3 °F 6.6 °F 1007.0 in WSW 0.6 mph 4.3 mph 89 % 0.0 in
18:41 8.3 °F 6.6 °F 1007.0 in North 0.3 mph   89 % 0.0 in
18:47 8.3 °F 6.8 °F 1007.0 in Calm     90 % 0.0 in
18:51 8.3 °F 6.8 °F 1007.0 in Calm     90 % 0.0 in
18:57 8.3 °F 6.8 °F 1007.0 in Calm     90 % 0.0 in
19:02 8.3 °F 6.8 °F 1007.0 in Calm     90 % 0.0 in
19:07 8.3 °F 6.9 °F 1007.0 in NW 0.3 mph 2.1 mph 91 % 0.0 in
19:12 8.3 °F 6.9 °F 1007.0 in NW 0.3 mph 2.1 mph 91 % 0.0 in
19:17 8.3 °F 6.9 °F 1007.0 in Calm     91 % 0.0 in
19:18 8.3 °F 6.9 °F 1007.0 in Calm     91 % 0.0 in
19:23 8.2 °F 6.8 °F 1007.0 in NW 0.2 mph 2.6 mph 91 % 0.0 in
19:28 8.2 °F 6.8 °F 1007.0 in NW 0.3 mph 2.6 mph 91 % 0.0 in
19:33 8.2 °F 6.8 °F 1007.0 in North 0.2 mph   91 % 0.0 in
19:34 8.2 °F 6.8 °F 1007.0 in Calm     91 % 0.0 in
19:37 8.1 °F 6.7 °F 1007.0 in Calm     91 % 0.0 in
19:42 8.1 °F 6.9 °F 1008.0 in Calm     92 % 0.0 in
19:43 8.1 °F 6.9 °F 1008.0 in Calm     92 % 0.0 in
19:48 8.0 °F 6.8 °F 1008.0 in Calm     92 % 0.0 in
19:50 8.0 °F 6.8 °F 1008.0 in Calm     92 % 0.0 in
19:55 7.9 °F 6.7 °F 1008.0 in Calm     92 % 0.0 in
19:57 7.9 °F 6.7 °F 1008.0 in Calm     92 % 0.0 in
20:01 7.8 °F 6.6 °F 1008.0 in Calm     92 % 0.0 in
20:04 7.8 °F 6.6 °F 1008.0 in Calm     92 % 0.0 in
20:09 7.6 °F 6.4 °F 1008.0 in Calm     92 % 0.0 in
20:11 7.5 °F 6.3 °F 1008.0 in Calm     92 % 0.0 in
20:16 7.4 °F 6.2 °F 1008.0 in Calm     92 % 0.0 in
20:21 7.3 °F 6.1 °F 1008.0 in Calm     92 % 0.0 in
20:23 7.3 °F 6.1 °F 1008.0 in Calm     92 % 0.0 in
20:28 7.1 °F 5.9 °F 1008.0 in Calm     92 % 0.0 in
20:34 6.9 °F 5.8 °F 1008.0 in Calm     93 % 0.0 in
20:36 6.9 °F 5.8 °F 1008.0 in Calm     93 % 0.0 in
20:37 6.8 °F 5.7 °F 1008.0 in Calm     93 % 0.0 in
20:43 6.7 °F 5.7 °F 1008.0 in Calm     93 % 0.0 in
20:48 6.5 °F 5.4 °F 1008.0 in Calm     93 % 0.0 in
20:53 6.4 °F 5.3 °F 1008.0 in Calm     93 % 0.0 in
20:56 6.3 °F 5.3 °F 1008.0 in Calm     93 % 0.0 in
21:05 6.1 °F 5.1 °F 1008.0 in Calm     93 % 0.0 in
21:07 6.1 °F 5.1 °F 1008.0 in Calm     93 % 0.0 in
21:09 6.1 °F 5.1 °F 1008.0 in Calm     93 % 0.0 in
21:14 6.2 °F 5.2 °F 1008.0 in Calm     93 % 0.0 in
21:17 6.3 °F 5.3 °F 1008.0 in Calm     93 % 0.0 in
21:22 6.3 °F 5.3 °F 1008.0 in Calm     93 % 0.0 in
21:25 6.4 °F 5.3 °F 1008.0 in Calm     93 % 0.0 in
21:30 6.5 °F 5.4 °F 1008.0 in Calm     93 % 0.0 in
21:32 6.5 °F 5.4 °F 1008.0 in Calm     93 % 0.0 in
21:37 6.7 °F 5.7 °F 1008.0 in WNW 0.2 mph 2.6 mph 93 % 0.0 in
21:42 6.8 °F 5.9 °F 1008.0 in WNW 0.2 mph 2.6 mph 94 % 0.0 in
21:47 7.0 °F 5.9 °F 1008.0 in Calm     93 % 0.0 in
21:49 7.0 °F 5.9 °F 1008.0 in Calm     93 % 0.0 in
21:54 7.0 °F 6.1 °F 1008.0 in Calm     94 % 0.0 in
21:58 7.1 °F 6.2 °F 1008.0 in Calm     94 % 0.0 in
21:59 7.1 °F 6.2 °F 1008.0 in Calm     94 % 0.0 in
22:04 7.2 °F 6.3 °F 1008.0 in Calm     94 % 0.0 in
22:06 7.2 °F 6.3 °F 1008.0 in Calm     94 % 0.0 in
22:11 7.3 °F 6.4 °F 1008.0 in Calm     94 % 0.0 in
22:14 7.3 °F 6.4 °F 1008.0 in Calm     94 % 0.0 in
22:16 7.3 °F 6.4 °F 1008.0 in Calm     94 % 0.0 in
22:21 7.4 °F 6.5 °F 1008.0 in Calm     94 % 0.0 in
22:24 7.4 °F 6.5 °F 1008.0 in Calm     94 % 0.0 in
22:29 7.5 °F 6.8 °F 1008.0 in Calm     95 % 0.0 in
22:30 7.5 °F 6.8 °F 1008.0 in Calm     95 % 0.0 in
22:35 7.5 °F 6.8 °F 1008.0 in Calm     95 % 0.0 in
22:37 7.5 °F 6.8 °F 1008.0 in Calm     95 % 0.0 in
22:42 7.6 °F 6.8 °F 1008.0 in Calm     95 % 0.0 in
22:43 7.6 °F 6.8 °F 1008.0 in Calm     95 % 0.0 in
22:48 7.6 °F 6.8 °F 1008.0 in Calm     95 % 0.0 in
22:49 7.6 °F 6.8 °F 1008.0 in Calm     95 % 0.0 in
22:54 7.7 °F 6.9 °F 1008.0 in Calm     95 % 0.0 in
22:59 7.6 °F 6.8 °F 1008.0 in Calm     95 % 0.0 in
23:02 7.6 °F 6.8 °F 1008.0 in Calm     95 % 0.0 in
23:07 7.6 °F 6.8 °F 1008.0 in Calm     95 % 0.0 in
23:12 7.7 °F 6.9 °F 1008.0 in Calm     95 % 0.0 in
23:15 7.7 °F 6.9 °F 1008.0 in Calm     95 % 0.0 in
23:20 7.7 °F 6.9 °F 1008.0 in Calm     95 % 0.0 in
23:24 7.6 °F 6.8 °F 1008.0 in Calm     95 % 0.0 in
23:29 7.5 °F 6.8 °F 1008.0 in Calm     95 % 0.0 in
23:30 7.5 °F 6.8 °F 1008.0 in Calm     95 % 0.0 in
23:31 7.5 °F 6.8 °F 1008.0 in Calm     95 % 0.0 in
23:36 7.6 °F 6.8 °F 1008.0 in Calm     95 % 0.0 in
23:37 7.7 °F 6.9 °F 1008.0 in Calm     95 % 0.0 in
23:42 7.7 °F 6.9 °F 1008.0 in Calm     95 % 0.0 in
23:47 7.6 °F 7.0 °F 1008.0 in Calm     96 % 0.0 in
23:52 7.7 °F 7.1 °F 1008.0 in Calm     96 % 0.0 in
23:56 7.7 °F 7.1 °F 1008.0 in Calm     96 % 0.0 in
Vremenska postaja Senovo
Podatki zbrani iz Weather Underground - 3.5 mb

Script developed by  Jim McMurry - jmcmurry@mwt.net Adapted for the template by  Wim van der Kuil - Leuven-Template.eu

Vremenski podatki so objavljeni na:

European Weather Network

WeatherCloud

Weather Underground

AWEKAS

HAMweather, WeatherForYou, PWS Weather

MapView

Geostik

Slovenia weather network

Oprema, ki se uporablja:

Vremenski program
Cumulus

Vremenski server
Asus

Cumulus

Asus